• Join FlightAware (Why Join?)
  • Login
  • US Flag 
11:46PM EDT


 

Airport Tracker/Info


-or-


 

Live Flight TrackerFlight Track Log ✈ N84NG ✈ 14-Oct-2013 ✈ KSDL - KPWA

Flight Track Log - Related Links

Times and Time Zones

All times are in EDT time to prevent confusion due to time zone crossing. See the N84NG flight status page for this flight to view local times or setup timezone preferences in your user account.

Time Position Orientation Groundspeed Altitude Reporting Facility
EDT Latitude Longitude Course Direction KTS MPH feet Rate Location/Type
11:27AM 33.6333 -111.9000 345° North 191 220 2,600  Level Phoenix TRACON
11:28AM 33.6833 -111.9167 344° North 254 292 5,000 1,980 Climbing Phoenix TRACON
11:29AM 33.7333 -111.9500 331° Northwest 257 296 6,200 1,680 Climbing Phoenix TRACON
11:30AM 33.7500 -111.8500 79° East 284 327 8,600 2,100 Climbing Phoenix TRACON
11:31AM 33.7333 -111.7667 104° East 318 366 10,500 2,280 Climbing Phoenix TRACON
11:32AM 33.7333 -111.6500 90° East 351 404 13,000 2,340 Climbing Phoenix TRACON
11:33AM 33.7131 -111.5008 99° East 365 420 16,100 2,040 Climbing Albuquerque Center
11:34AM 33.6994 -111.3736 97° East 383 441 18,000 2,040 Climbing Albuquerque Center
11:35AM 33.7097 -111.2144 86° East 403 464 20,400 2,100 Climbing Albuquerque Center
11:36AM 33.7536 -111.0858 68° East 415 478 22,400 1,920 Climbing Albuquerque Center
11:37AM 33.7994 -110.9553 67° East 424 488 24,400 1,920 Climbing Albuquerque Center
11:38AM 33.8461 -110.8228 67° East 430 495 26,400 1,920 Climbing Albuquerque Center
11:39AM 33.8808 -110.6833 73° East 440 506 28,400 1,740 Climbing Albuquerque Center
11:40AM 33.9114 -110.5114 78° East 439 505 30,100 1,320 Climbing Albuquerque Center
11:41AM 33.9381 -110.3575 78° East 450 518 31,200 1,020 Climbing Albuquerque Center
11:42AM 33.9667 -110.2008 78° East 469 540 32,200 960 Climbing Albuquerque Center
11:43AM 33.9961 -110.0417 77° East 481 554 33,200 960 Climbing Albuquerque Center
11:44AM 34.0269 -109.8728 78° East 488 562 34,200 900 Climbing Albuquerque Center
11:45AM 34.0536 -109.7181 78° East 492 566 35,100 780 Climbing Albuquerque Center
11:46AM 34.0850 -109.5344 78° East 498 573 35,900 660 Climbing Albuquerque Center
11:47AM 34.1108 -109.3869 78° East 502 578 36,500 720 Climbing Albuquerque Center
11:48AM 34.1456 -109.1831 78° East 511 588 37,400 720 Climbing Albuquerque Center
11:49AM 34.1725 -109.0231 78° East 516 594 38,000 480 Climbing Albuquerque Center
11:50AM 34.2053 -108.8314 78° East 520 598 38,500 420 Climbing Albuquerque Center
11:52AM 34.2339 -108.6656 78° East 524 603 38,900 240 Climbing Albuquerque Center
11:53AM 34.2658 -108.4664 79° East 533 613 39,000  Climbing Albuquerque Center
11:54AM 34.2928 -108.3022 79° East 544 626 39,000  Level Albuquerque Center
11:55AM 34.3231 -108.1172 79° East 556 640 39,000  Level Albuquerque Center
11:56AM 34.3586 -107.8922 79° East 567 652 39,000  Level Albuquerque Center
11:57AM 34.3872 -107.7019 80° East 573 659 39,000  Level Albuquerque Center
11:58AM 34.4156 -107.5125 80° East 576 663 39,000  Level Albuquerque Center
11:59AM 34.4453 -107.3250 79° East 573 659 39,000  Level Albuquerque Center
12:00PM 34.4803 -107.1089 79° East 571 657 39,000  Level Albuquerque Center
12:01PM 34.5119 -106.9044 79° East 573 659 39,000  Level Albuquerque Center
12:02PM 34.5397 -106.7119 80° East 581 669 39,000  Level Albuquerque Center
12:03PM 34.5661 -106.5269 80° East 584 672 39,000  Level Albuquerque Center
12:04PM 34.5964 -106.3211 80° East 579 666 39,000  Level Albuquerque Center
12:05PM 34.6239 -106.1267 80° East 584 672 39,000  Level Albuquerque Center
12:06PM 34.6525 -105.9319 80° East 588 677 39,000  Level Albuquerque Center
12:07PM 34.6836 -105.7083 80° East 577 664 39,000  Level Albuquerque Center
12:08PM 34.7103 -105.5125 81° East 582 670 39,000  Level Albuquerque Center
12:09PM 34.7372 -105.3156 80° East 584 672 39,000  Level Albuquerque Center
12:10PM 34.7639 -105.1194 81° East 586 674 39,000  Level Albuquerque Center
12:11PM 34.7894 -104.9239 81° East 584 672 39,000  Level Albuquerque Center
12:13PM 34.8054 -104.7074 85° East  Level FlightAware Approximate
12:13PM 34.8450 -104.5022 85° East 580 667 39,000  Level Albuquerque Center
12:14PM 34.8706 -104.3078 81° East 581 669 39,000  Level Albuquerque Center
12:15PM 34.8944 -104.1153 81° East 579 666 39,000  Level Albuquerque Center
12:16PM 34.9189 -103.9222 81° East 578 665 39,000  Level Albuquerque Center
12:17PM 34.9436 -103.7306 81° East 575 662 39,000  Level Albuquerque Center
12:18PM 34.9711 -103.5056 81° East 574 661 39,000  Level Albuquerque Center
12:19PM 34.9936 -103.3122 82° East 574 661 39,000  Level Albuquerque Center
12:20PM 35.0172 -103.1194 81° East 572 658 39,000  Level Albuquerque Center
12:21PM 35.0386 -102.9317 82° East 569 655 39,000  Level Albuquerque Center
12:23PM 35.0603 -102.7394 82° East 572 658 39,000  Level Albuquerque Center
12:24PM 35.0817 -102.5489 82° East 569 655 39,000  Level Albuquerque Center
12:25PM 35.1069 -102.3189 82° East 571 657 39,000  Level Albuquerque Center
12:26PM 35.1294 -102.1281 82° East 571 657 39,000  Level Albuquerque Center
12:27PM 35.1522 -101.9286 82° East 573 659 39,000  Level Albuquerque Center
12:28PM 35.1719 -101.7347 83° East 572 658 39,000  Level Albuquerque Center
12:29PM 35.1931 -101.5403 82° East 570 656 39,000  Level Albuquerque Center
12:30PM 35.2119 -101.3500 83° East 566 651 39,000  Level Albuquerque Center
12:31PM 35.2328 -101.1514 83° East 565 650 39,000  Level Albuquerque Center
12:32PM 35.2522 -100.9622 83° East 564 649 39,000  Level Albuquerque Center
12:33PM 35.2706 -100.7736 83° East 563 648 39,000  Level Albuquerque Center
12:34PM 35.2922 -100.5522 83° East 561 646 39,000  Level Albuquerque Center
12:35PM 35.3086 -100.3617 84° East 562 647 39,000  Level Albuquerque Center
12:36PM 35.3353 -100.1753 80° East 560 644 39,000  Level Albuquerque Center
12:37PM 35.3525 -99.9861 84° East 559 643 39,000 -120 Level Albuquerque Center
12:38PM 35.3728 -99.7989 82° East 557 641 38,800 -840 Descending Albuquerque Center
12:39PM 35.4278 -99.6217 69° East 559 643 37,300 -1,680 Descending Albuquerque Center
12:40PM 35.4911 -99.4189 69° East 539 620 35,400 -1,920 Descending Albuquerque Center
12:41PM 35.5236 -99.2497 77° East 517 595 33,400 -1,980 Descending Albuquerque Center
12:42PM 35.5450 -99.0831 81° East 504 580 31,400 -1,980 Descending Albuquerque Center
12:43PM 35.5650 -98.9181 81° East 496 571 29,400 -1,980 Descending Albuquerque Center
12:44PM 35.5861 -98.7592 81° East 482 555 27,400 -2,100 Descending Albuquerque Center
12:46PM 35.6117 -98.5419 82° East 471 542 24,600 -2,160 Descending Fort Worth Center
12:46PM 35.6231 -98.4325 83° East 453 521 23,200 -2,100 Descending Fort Worth Center
12:47PM 35.6319 -98.3789 78° East 456 525 22,500 -2,220 Descending Fort Worth Center
12:47PM 35.6408 -98.2972 82° East 429 494 21,200 -2,340 Descending Fort Worth Center
12:48PM 35.6475 -98.2361 82° East 433 498 20,200 -2,400 Descending Fort Worth Center
12:48PM 35.6542 -98.1644 83° East 390 449 18,800 -2,400 Descending Fort Worth Center
12:49PM 35.6628 -98.1033 80° East 411 473 17,800 -2,280 Descending Fort Worth Center
12:49PM 35.6444 -98.0342 108° East 352 405 16,300 -2,520 Descending Fort Worth Center
12:50PM 35.6281 -98.0008 121° Southeast 335 386 15,300 -2,580 Descending Fort Worth Center
12:50PM 35.5928 -97.9444 128° Southeast 285 328 13,700 -2,400 Descending Fort Worth Center
12:51PM 35.5803 -97.9214 124° Southeast 296 341 12,900 -2,520 Descending Fort Worth Center
12:52PM 35.5369 -97.8447 125° Southeast 291 335 10,500 -2,340 Descending Fort Worth Center
12:52PM 35.5558 -97.7911 67° East 269 310 8,900 -2,400 Descending Fort Worth Center
12:53PM 35.5786 -97.7861 10° North 205 236 8,100 -2,460 Descending Fort Worth Center
12:53PM 35.6289 -97.7789 North 262 302 6,400 -2,400 Descending Fort Worth Center
12:54PM 35.6497 -97.7764 North 180 207 5,700 -2,100 Descending Fort Worth Center
12:54PM 35.6831 -97.7381 43° Northeast 258 297 4,300 -2,040 Descending Fort Worth Center
12:55PM 35.6956 -97.7153 56° Northeast 208 239 3,700 -1,440 Descending Fort Worth Center
12:55PM 35.7144 -97.6744 60° Northeast 228 262 3,000 -720 Descending Fort Worth Center
12:56PM 35.7064 -97.6539 116° Southeast 183 211 3,000  Level Fort Worth Center
12:56PM 35.6792 -97.6461 167° South 143 165 3,000  Level Fort Worth Center
12:57PM 35.6644 -97.6486 188° South 98 113 3,000  Level Fort Worth Center
12:57PM 35.6375 -97.6486 180° South 146 168 3,000 -240 Level Fort Worth Center
12:58PM 35.6269 -97.6486 180° South 103 119 2,800 -540 Descending Fort Worth Center
12:58PM 35.6061 -97.6483 179° South 108 124 2,500 -540 Descending Fort Worth Center
12:59PM 35.5958 -97.6483 180° South 115 132 2,300 -600 Descending Fort Worth Center
12:59PM 35.5750 -97.6483 180° South 107 123 1,900 -600 Descending Fort Worth Center
01:00PM 35.5644 -97.6483 180° South 115 132 1,700 -360 Descending Fort Worth Center
01:01PM 35.5353 -97.6483 180° South 115 132 1,500 -240 Descending Fort Worth Center